Time;durP1;ratioP1;P1;durP2;ratioP2;P2;SDS_P1;SDS_P2;PMS_P1;PMS_P2;Temp;Humidity;BMP_temperature;BMP_pressure;BME280_temperature;BME280_humidity;BME280_pressure;Samples;Min_cycle;Max_cycle;Signal;HPM_P1;HPM_P2
2023/05/14 00:11:26;;;;;;;;;;;;;;;;;;;;;
2023/05/14 00:33:31;;;;;;;;;;;;;;;;;;;;;
2023/05/14 04:46:58;;;;;;;10.00;9.70;;;11.20;99.90;;;;;;6253359;22;1415885;-78
2023/05/14 04:49:26;;;;;;;10.13;9.83;;;11.20;99.90;;;;;;6360266;22;20227;-76
2023/05/14 04:51:53;;;;;;;10.33;10.03;;;11.30;99.90;;;;;;6361437;22;20283;-81
2023/05/14 04:54:21;;;;;;;10.50;10.20;;;11.40;99.90;;;;;;6363232;22;20251;-81
2023/05/14 04:56:49;;;;;;;10.20;9.90;;;11.30;99.90;;;;;;6362517;22;20226;-80
2023/05/14 04:59:16;;;;;;;10.20;9.90;;;11.30;99.90;;;;;;6362535;22;20249;-80
2023/05/14 05:01:44;;;;;;;10.40;10.10;;;11.20;99.90;;;;;;6362405;22;20199;-79
2023/05/14 05:04:14;;;;;;;10.10;9.80;;;11.10;99.90;;;;;;6362201;22;20214;-79
2023/05/14 05:06:41;;;;;;;10.40;10.10;;;11.00;99.90;;;;;;6362574;22;20278;-79
2023/05/14 05:09:09;;;;;;;10.27;9.97;;;11.00;99.90;;;;;;6371370;22;20203;-80
2023/05/14 05:11:37;;;;;;;10.33;10.03;;;11.00;99.90;;;;;;6361790;22;20255;-80
2023/05/14 05:14:05;;;;;;;10.50;10.20;;;11.00;99.90;;;;;;6363547;22;20199;-80
2023/05/14 05:16:33;;;;;;;10.57;10.27;;;11.10;99.90;;;;;;6362226;22;20211;-80
2023/05/14 05:19:01;;;;;;;10.30;10.00;;;11.00;99.90;;;;;;6362023;22;20302;-79
2023/05/14 05:21:30;;;;;;;10.40;10.10;;;11.10;99.90;;;;;;6362489;22;20245;-80
2023/05/14 05:23:57;;;;;;;10.43;10.13;;;11.10;99.90;;;;;;6363344;22;20192;-80
2023/05/14 05:26:26;;;;;;;10.37;10.07;;;11.20;99.90;;;;;;6366680;22;20230;-79
2023/05/14 05:28:54;;;;;;;10.40;10.10;;;11.20;99.90;;;;;;6362543;22;20188;-79
2023/05/14 05:31:22;;;;;;;10.40;10.10;;;11.10;99.90;;;;;;6362880;22;20192;-79
2023/05/14 05:33:50;;;;;;;10.40;10.10;;;11.20;99.90;;;;;;6363039;22;20190;-81
2023/05/14 05:36:17;;;;;;;10.40;10.10;;;11.20;99.90;;;;;;6363328;22;20215;-80
2023/05/14 05:38:46;;;;;;;10.47;10.17;;;11.30;99.90;;;;;;6362989;22;20255;-79
2023/05/14 05:41:14;;;;;;;10.50;10.20;;;11.40;99.90;;;;;;6363369;22;20242;-79
2023/05/14 05:43:41;;;;;;;10.20;9.90;;;11.50;99.90;;;;;;6357824;22;20199;-79
2023/05/14 05:46:09;;;;;;;10.10;9.80;;;11.70;99.90;;;;;;6355863;22;20263;-79
2023/05/14 05:48:37;;;;;;;10.10;9.80;;;11.80;99.90;;;;;;6355462;22;20259;-79
2023/05/14 05:51:05;;;;;;;10.10;9.80;;;11.90;99.90;;;;;;6357149;22;20663;-79
2023/05/14 05:53:32;;;;;;;10.30;10.00;;;12.00;99.90;;;;;;6357824;22;20659;-80
2023/05/14 05:56:02;;;;;;;10.40;10.10;;;12.10;99.90;;;;;;6355381;22;20271;-81
2023/05/14 05:58:30;;;;;;;10.03;9.73;;;12.10;99.90;;;;;;6354817;22;20192;-80
2023/05/14 06:00:58;;;;;;;10.13;9.83;;;12.20;99.90;;;;;;6353053;22;20193;-80
2023/05/14 06:03:25;;;;;;;10.23;9.93;;;12.40;99.90;;;;;;6355083;22;20246;-78
2023/05/14 06:05:53;;;;;;;9.93;9.63;;;12.50;99.90;;;;;;6353225;22;20195;-80
2023/05/14 06:08:21;;;;;;;10.27;9.97;;;12.60;99.90;;;;;;6354231;22;20282;-78
2023/05/14 06:10:49;;;;;;;10.40;10.10;;;12.60;99.90;;;;;;6353674;22;20214;-78
2023/05/14 06:13:18;;;;;;;10.20;9.90;;;12.70;99.90;;;;;;6354237;22;20283;-79
2023/05/14 06:15:47;;;;;;;10.30;10.00;;;12.80;99.90;;;;;;6354713;22;20223;-78
2023/05/14 06:18:14;;;;;;;10.23;9.93;;;12.90;99.90;;;;;;6359206;22;20208;-80
2023/05/14 06:20:42;;;;;;;10.50;10.20;;;13.00;99.90;;;;;;6354324;22;20279;-78
2023/05/14 06:23:11;;;;;;;10.30;10.00;;;13.00;99.90;;;;;;6353723;22;20195;-78
2023/05/14 06:25:38;;;;;;;10.20;9.90;;;13.00;99.90;;;;;;6354026;22;20270;-79
2023/05/14 06:28:06;;;;;;;10.50;10.20;;;13.10;99.90;;;;;;6354051;22;20274;-79
2023/05/14 06:30:35;;;;;;;10.30;10.00;;;13.10;99.90;;;;;;6354134;22;20271;-80
2023/05/14 06:33:03;;;;;;;10.50;10.20;;;13.10;99.90;;;;;;6354662;22;20203;-80
2023/05/14 06:35:30;;;;;;;10.23;9.93;;;13.20;99.90;;;;;;6355230;22;20204;-80
2023/05/14 06:37:58;;;;;;;10.60;10.30;;;13.20;99.90;;;;;;6356366;22;20247;-80
2023/05/14 06:40:25;;;;;;;10.70;10.40;;;13.30;99.90;;;;;;6357181;22;20180;-80
2023/05/14 06:42:53;;;;;;;10.47;10.17;;;13.40;99.90;;;;;;6356588;22;20267;-78
2023/05/14 06:45:20;;;;;;;10.23;9.93;;;13.40;99.90;;;;;;6353409;22;20223;-78
2023/05/14 06:47:50;;;;;;;10.37;10.07;;;13.50;99.90;;;;;;6354084;22;20283;-78
2023/05/14 06:50:18;;;;;;;10.30;10.00;;;13.60;99.90;;;;;;6353623;22;20203;-79
2023/05/14 06:52:45;;;;;;;10.17;9.87;;;13.50;99.90;;;;;;6353555;22;20283;-79
2023/05/14 06:55:13;;;;;;;10.37;10.07;;;13.50;99.90;;;;;;6353160;22;20203;-79
2023/05/14 06:57:42;;;;;;;10.10;9.80;;;13.50;99.90;;;;;;6354679;22;20200;-81
2023/05/14 07:00:13;;;;;;;10.30;10.00;;;13.50;99.90;;;;;;6364504;22;20176;-80
2023/05/14 07:02:42;;;;;;;10.30;10.00;;;13.50;99.90;;;;;;6355800;22;20218;-82
2023/05/14 07:05:13;;;;;;;10.20;9.90;;;13.50;99.90;;;;;;6354305;22;20247;-83
2023/05/14 07:07:40;;;;;;;10.50;10.20;;;13.60;99.90;;;;;;6356083;22;20396;-83
2023/05/14 07:10:10;;;;;;;10.30;10.00;;;13.60;99.90;;;;;;6359617;22;20388;-82
2023/05/14 07:12:40;;;;;;;10.10;9.80;;;13.70;99.90;;;;;;6361913;22;20201;-82
2023/05/14 07:15:09;;;;;;;9.97;9.67;;;13.80;99.90;;;;;;6360822;22;20188;-82
2023/05/14 07:17:38;;;;;;;10.13;9.83;;;13.70;99.90;;;;;;6359852;22;20208;-82
2023/05/14 07:20:07;;;;;;;9.90;9.60;;;13.60;99.90;;;;;;6358425;22;20196;-82
2023/05/14 07:22:37;;;;;;;10.03;9.73;;;13.60;99.90;;;;;;6360238;22;20199;-83
2023/05/14 07:25:06;;;;;;;10.20;9.90;;;13.60;99.90;;;;;;6362435;22;20193;-82
2023/05/14 07:27:36;;;;;;;10.40;10.10;;;13.60;99.90;;;;;;6358550;22;20192;-82
2023/05/14 07:30:04;;;;;;;10.10;9.80;;;13.50;99.90;;;;;;6357547;22;20200;-81
2023/05/14 07:32:32;;;;;;;10.20;9.90;;;13.60;99.90;;;;;;6356116;22;20204;-78
2023/05/14 07:34:59;;;;;;;10.17;9.87;;;13.70;99.90;;;;;;6354577;22;20264;-80
2023/05/14 07:37:27;;;;;;;10.30;10.00;;;13.80;99.90;;;;;;6354668;22;20196;-80
2023/05/14 07:39:56;;;;;;;10.07;9.77;;;14.00;99.90;;;;;;6356467;22;20219;-79
2023/05/14 07:42:24;;;;;;;10.43;10.13;;;14.20;99.90;;;;;;6357243;22;20231;-79
2023/05/14 07:44:52;;;;;;;10.40;10.10;;;14.40;99.90;;;;;;6357135;22;20188;-78
2023/05/14 07:47:20;;;;;;;10.57;10.27;;;14.60;99.90;;;;;;6355107;22;20210;-79
2023/05/14 07:49:52;;;;;;;10.80;10.50;;;14.90;99.90;;;;;;6366433;22;20199;-81
2023/05/14 07:52:22;;;;;;;10.60;10.30;;;15.10;99.90;;;;;;6371885;22;20227;-81
2023/05/14 07:54:52;;;;;;;10.70;10.40;;;15.20;99.90;;;;;;6373916;22;20196;-81
2023/05/14 07:57:21;;;;;;;11.00;10.70;;;15.30;99.90;;;;;;6374726;22;20199;-80
2023/05/14 07:59:50;;;;;;;10.88;10.57;;;15.50;99.90;;;;;;6374606;22;20168;-80
2023/05/14 08:02:19;;;;;;;10.73;10.43;;;15.60;99.90;;;;;;6373526;22;20219;-81
2023/05/14 08:04:47;;;;;;;10.68;10.38;;;15.60;99.90;;;;;;6371957;22;20176;-81
2023/05/14 08:07:15;;;;;;;10.20;9.90;;;15.70;99.90;;;;;;6370339;22;20230;-80
2023/05/14 08:09:43;;;;;;;10.40;10.10;;;15.50;99.90;;;;;;6370569;22;20180;-81
2023/05/14 08:12:10;;;;;;;10.50;10.20;;;15.50;99.90;;;;;;6370093;22;20192;-81
2023/05/14 08:14:47;;;;;;;10.32;10.02;;;15.30;99.90;;;;;;6369180;22;20192;-81
2023/05/14 08:17:16;;;;;;;10.02;9.73;;;15.20;99.90;;;;;;6367056;22;20211;-82
2023/05/14 08:19:48;;;;;;;10.25;9.95;;;15.20;99.90;;;;;;6369433;22;21040;-82
2023/05/14 08:22:18;;;;;;;10.50;10.20;;;15.00;99.90;;;;;;6363906;22;20247;-82
2023/05/14 08:24:46;;;;;;;10.10;9.80;;;14.80;99.90;;;;;;6360601;22;20188;-83
2023/05/14 08:27:16;;;;;;;10.50;10.20;;;14.80;99.90;;;;;;6359205;22;20204;-82
2023/05/14 08:29:47;;;;;;;10.37;10.07;;;15.00;99.90;;;;;;6358173;22;20207;-84
2023/05/14 08:32:14;;;;;;;10.60;10.30;;;15.10;99.90;;;;;;6358271;22;20204;-83
2023/05/14 08:34:44;;;;;;;10.30;10.00;;;15.20;99.90;;;;;;6358400;22;20192;-82
2023/05/14 08:37:13;;;;;;;10.30;10.00;;;15.40;99.90;;;;;;6357987;22;20196;-83
2023/05/14 08:39:43;;;;;;;9.98;9.68;;;15.50;99.90;;;;;;6357688;22;20189;-83
2023/05/14 08:42:13;;;;;;;10.02;9.73;;;15.60;99.90;;;;;;6357696;22;20192;-85
2023/05/14 08:44:59;;;;;;;10.13;9.82;;;15.60;99.90;;;;;;6357354;22;20188;-84
2023/05/14 08:47:29;;;;;;;10.10;9.80;;;15.70;99.90;;;;;;6356749;22;20261;-84
2023/05/14 08:50:04;;;;;;;10.02;9.73;;;15.80;99.90;;;;;;6355359;22;20218;-81
2023/05/14 08:52:32;;;;;;;9.98;9.68;;;15.70;99.90;;;;;;6355707;22;20253;-82
2023/05/14 08:55:04;;;;;;;9.85;9.55;;;15.70;99.90;;;;;;6366695;22;20173;-81
2023/05/14 08:57:34;;;;;;;9.82;9.52;;;15.70;99.90;;;;;;6356202;22;20200;-81
2023/05/14 09:00:07;;;;;;;10.00;9.70;;;15.70;99.90;;;;;;6353600;22;20279;-80
2023/05/14 09:02:36;;;;;;;9.95;9.65;;;15.60;99.90;;;;;;6355342;22;20251;-80
2023/05/14 09:05:04;;;;;;;9.85;9.55;;;15.60;99.90;;;;;;6354778;22;20216;-80
2023/05/14 09:07:32;;;;;;;9.80;9.50;;;15.60;99.90;;;;;;6356119;22;20196;-80
2023/05/14 09:10:03;;;;;;;9.75;9.45;;;15.60;99.90;;;;;;6353726;22;20205;-80
2023/05/14 09:12:31;;;;;;;9.77;9.48;;;15.60;99.90;;;;;;6354483;22;20196;-80
2023/05/14 09:14:58;;;;;;;9.75;9.45;;;15.70;99.90;;;;;;6354635;22;20204;-81
2023/05/14 09:17:28;;;;;;;9.70;9.40;;;15.70;99.90;;;;;;6355651;22;20247;-81
2023/05/14 09:19:56;;;;;;;9.90;9.60;;;15.80;99.90;;;;;;6361577;22;20214;-80
2023/05/14 09:27:49;;;;;;;9.90;9.60;;;16.00;99.90;;;;;;6323758;22;20197;-80
2023/05/14 09:30:17;;;;;;;9.98;9.68;;;16.00;99.90;;;;;;6325197;22;20200;-80
2023/05/14 09:32:48;;;;;;;10.02;9.73;;;16.20;99.90;;;;;;6326792;22;20209;-80
2023/05/14 09:35:19;;;;;;;10.00;9.70;;;16.20;99.90;;;;;;6335385;22;20199;-79
2023/05/14 09:37:49;;;;;;;10.20;9.90;;;16.30;99.90;;;;;;6342757;22;20192;-79
2023/05/14 09:40:20;;;;;;;10.23;9.93;;;16.50;99.90;;;;;;6342928;22;20299;-80
2023/05/14 09:42:48;;;;;;;10.05;9.75;;;16.90;99.90;;;;;;6343393;22;20195;-80
2023/05/14 09:45:16;;;;;;;9.98;9.68;;;17.30;99.90;;;;;;6343445;22;20192;-81
2023/05/14 09:47:47;;;;;;;9.98;9.68;;;17.70;99.90;;;;;;6343130;22;20177;-80
2023/05/14 09:50:14;;;;;;;9.85;9.55;;;17.90;99.90;;;;;;6334441;22;20243;-80
2023/05/14 09:52:42;;;;;;;10.00;9.70;;;18.00;99.90;;;;;;6332527;22;20200;-81
2023/05/14 09:55:10;;;;;;;10.00;9.70;;;18.20;99.90;;;;;;6331266;22;20198;-82
2023/05/14 09:57:38;;;;;;;9.88;9.57;;;18.20;99.90;;;;;;6329366;22;20275;-82
2023/05/14 10:00:09;;;;;;;10.05;9.75;;;18.40;99.90;;;;;;6329624;22;20206;-82
2023/05/14 10:02:39;;;;;;;9.95;9.65;;;17.90;99.90;;;;;;6327910;22;20288;-82
2023/05/14 10:05:17;;;;;;;10.10;9.80;;;17.80;99.90;;;;;;6326774;22;20189;-82
2023/05/14 10:07:48;;;;;;;10.20;9.90;;;17.90;99.90;;;;;;6326204;22;20189;-82
2023/05/14 10:10:19;;;;;;;10.00;9.70;;;17.90;99.90;;;;;;6326989;22;20272;-83
2023/05/14 10:12:53;;;;;;;9.70;9.40;;;17.70;99.90;;;;;;6327039;22;20205;-82
2023/05/14 10:15:28;;;;;;;9.90;9.60;;;17.60;99.90;;;;;;6323019;22;20201;-81
2023/05/14 10:17:59;;;;;;;10.00;9.70;;;17.50;99.90;;;;;;6324617;22;20192;-81
2023/05/14 10:20:30;;;;;;;9.90;9.60;;;17.50;99.90;;;;;;6324125;22;20196;-82
2023/05/14 10:23:03;;;;;;;9.93;9.63;;;17.60;99.90;;;;;;6324812;22;20259;-82
2023/05/14 10:25:31;;;;;;;9.95;9.65;;;17.90;99.90;;;;;;6324842;22;20197;-81
2023/05/14 10:28:01;;;;;;;10.20;9.90;;;18.10;99.90;;;;;;6324782;22;20220;-82
2023/05/14 10:30:29;;;;;;;10.40;10.10;;;18.50;99.90;;;;;;6324971;22;20193;-81
2023/05/14 10:33:17;;;;;;;10.20;9.90;;;19.10;99.90;;;;;;6324757;22;20227;-81
2023/05/14 10:36:10;;;;;;;10.38;10.07;;;19.70;99.90;;;;;;6318007;22;20233;-83
2023/05/14 10:38:40;;;;;;;10.30;10.00;;;19.80;99.90;;;;;;6326493;22;20223;-81
2023/05/14 10:41:12;;;;;;;10.23;9.93;;;19.50;99.90;;;;;;6330532;22;20289;-83
2023/05/14 10:43:41;;;;;;;9.80;9.50;;;19.40;99.90;;;;;;6325698;22;20196;-81
2023/05/14 10:46:16;;;;;;;10.20;9.90;;;19.70;99.90;;;;;;6338400;22;20223;-81
2023/05/14 10:48:53;;;;;;;10.02;9.73;;;20.10;99.90;;;;;;6384249;22;20195;-81
2023/05/14 11:01:38;;;;;;;9.65;9.35;;;20.00;99.90;;;;;;6357446;22;20197;-82
2023/05/14 11:15:48;;;;;;;;;;;;;;;;;;;;;
2023/05/14 11:18:56;;;;;;;;;;;;;;;;;;;;;
2023/05/14 11:48:19;;;;;;;;;;;;;;;;;;;;;
2023/05/14 12:19:28;;;;;;;9.23;8.93;;;19.60;99.90;;;;;;5489362;22;17913896;-83
2023/05/14 12:22:28;;;;;;;9.07;8.88;;;18.90;99.90;;;;;;6239395;23;20194;-83
2023/05/14 12:25:40;;;;;;;9.00;8.80;;;18.90;99.90;;;;;;6229519;23;20277;-83
2023/05/14 12:31:54;;;;;;;9.00;8.80;;;18.90;99.90;;;;;;6145586;23;20190;-83
2023/05/14 12:39:00;;;;;;;9.00;8.80;;;18.80;99.90;;;;;;6109816;23;20206;-83
2023/05/14 12:41:44;;;;;;;8.77;8.57;;;18.60;99.90;;;;;;6208153;23;20718;-84
2023/05/14 12:47:50;;;;;;;9.50;9.20;;;18.40;99.90;;;;;;6175069;23;20302;-83
2023/05/14 12:50:47;;;;;;;;;;;;;;;;;;;;;
2023/05/14 12:54:04;;;;;;;9.50;9.20;;;18.50;99.90;;;;;;6178731;23;20254;-83
2023/05/14 13:03:06;;;;;;;8.80;8.60;;;18.70;99.90;;;;;;6176045;23;20219;-83
2023/05/14 13:05:48;;;;;;;9.52;9.23;;;18.90;99.90;;;;;;6153321;23;20200;-83
2023/05/14 13:12:34;;;;;;;9.52;9.23;;;19.10;99.90;;;;;;6135736;23;20216;-83
2023/05/14 13:15:23;;;;;;;9.93;9.63;;;19.40;99.90;;;;;;6195688;23;20187;-83
2023/05/14 13:21:31;;;;;;;;;;;;;;;;;;;;;
2023/05/14 13:28:02;;;;;;;9.50;9.20;;;21.20;99.90;;;;;;6165914;23;20239;-84
2023/05/14 13:31:48;;;;;;;;;;;;;;;;;;;;;
2023/05/14 13:35:06;;;;;;;9.75;9.45;;;21.90;99.90;;;;;;6119004;23;20205;-83
2023/05/14 13:38:17;;;;;;;9.60;9.30;;;22.60;99.90;;;;;;6167612;23;20225;-84
2023/05/14 13:40:56;;;;;;;10.20;9.90;;;23.00;99.90;;;;;;6171217;23;20196;-82
2023/05/14 14:00:16;;;;;;;;;;;;;;;;;;;;;
2023/05/14 14:03:17;;;;;;;9.80;9.50;;;23.00;99.90;;;;;;6170097;23;20184;-83
2023/05/14 14:06:12;;;;;;;10.00;9.70;;;23.50;99.90;;;;;;6170225;23;20252;-84
2023/05/14 14:09:12;;;;;;;10.20;9.90;;;23.80;99.90;;;;;;6169953;23;20211;-84
2023/05/14 14:11:49;;;;;;;9.98;9.68;;;24.20;99.90;;;;;;6170510;23;20251;-84
2023/05/14 14:14:59;;;;;;;9.88;9.57;;;24.40;99.90;;;;;;6181366;23;20176;-84
2023/05/14 14:17:42;;;;;;;;;;;;;;;;;;;;;
2023/05/14 14:20:29;;;;;;;10.10;9.80;;;24.80;99.90;;;;;;6188893;23;20179;-83
2023/05/14 14:26:39;;;;;;;;;;;;;;;;;;;;;
2023/05/14 14:29:36;;;;;;;9.73;9.43;;;23.30;99.90;;;;;;6173796;23;20196;-83
2023/05/14 14:32:34;;;;;;;10.00;9.70;;;23.70;99.90;;;;;;6172390;23;20212;-84
2023/05/14 14:38:48;;;;;;;9.77;9.48;;;24.20;99.90;;;;;;6151846;23;20204;-84
2023/05/14 14:51:51;;;;;;;10.07;9.77;;;22.30;99.90;;;;;;6141742;23;20248;-84
2023/05/14 14:55:01;;;;;;;9.80;9.50;;;22.00;99.90;;;;;;6083634;23;20287;-82
2023/05/14 14:57:56;;;;;;;10.18;9.88;;;21.40;99.90;;;;;;6024142;23;20332;-82
2023/05/14 15:01:17;;;;;;;9.93;9.63;;;21.20;99.90;;;;;;6171294;23;20263;-83
2023/05/14 15:07:30;;;;;;;;;;;;;;;;;;;;;
2023/05/14 15:10:36;;;;;;;9.88;9.57;;;21.80;99.90;;;;;;6172306;23;20203;-83
2023/05/14 15:13:45;;;;;;;10.05;9.75;;;22.70;99.90;;;;;;6171830;23;20195;-83
2023/05/14 15:44:17;;;;;;;9.68;9.38;;;22.90;99.90;;;;;;6256101;22;20205;-83
2023/05/14 15:47:22;;;;;;;9.60;9.30;;;22.80;99.90;;;;;;6263176;22;20201;-83
2023/05/14 15:50:58;;;;;;;9.70;9.40;;;22.80;99.90;;;;;;6263080;22;20202;-82
2023/05/14 15:58:14;;;;;;;10.00;9.70;;;22.10;99.90;;;;;;6067523;23;20208;-82
2023/05/14 16:01:27;;;;;;;;;;;;;;;;;;;;;
2023/05/14 16:08:13;;;;;;;9.93;9.63;;;20.50;99.90;;;;;;6209024;23;20686;-82
2023/05/14 17:04:23;;;;;;;9.80;9.50;;;20.50;99.90;;;;;;6162739;22;20228;-78
2023/05/14 17:06:51;;;;;;;9.80;9.50;;;20.70;99.90;;;;;;6215804;23;20208;-79
2023/05/14 17:09:19;;;;;;;9.60;9.30;;;20.90;99.90;;;;;;6212456;22;20199;-79
2023/05/14 17:11:47;;;;;;;9.77;9.48;;;21.10;99.90;;;;;;6206290;23;20200;-79
2023/05/14 17:14:14;;;;;;;9.70;9.40;;;21.30;99.90;;;;;;6206755;23;20202;-79
2023/05/14 17:16:42;;;;;;;9.70;9.40;;;21.50;99.90;;;;;;6205791;23;20202;-79
2023/05/14 17:19:10;;;;;;;9.68;9.38;;;21.40;99.90;;;;;;6205543;23;20195;-80
2023/05/14 17:21:40;;;;;;;9.52;9.23;;;21.30;99.90;;;;;;6205307;23;20239;-79
2023/05/14 17:24:08;;;;;;;9.50;9.20;;;21.50;99.90;;;;;;6203380;23;20196;-78
2023/05/14 17:26:36;;;;;;;9.43;9.13;;;21.60;99.90;;;;;;6202872;23;20207;-80
2023/05/14 17:29:04;;;;;;;9.57;9.27;;;21.80;99.90;;;;;;6202139;23;20195;-79
2023/05/14 17:31:32;;;;;;;9.40;9.10;;;21.90;99.90;;;;;;6203505;23;20209;-79
2023/05/14 17:33:59;;;;;;;9.60;9.30;;;22.00;99.90;;;;;;6205218;23;20207;-80
2023/05/14 17:36:28;;;;;;;9.75;9.45;;;21.90;99.90;;;;;;6203542;23;20235;-79
2023/05/14 17:38:58;;;;;;;9.70;9.40;;;21.70;99.90;;;;;;6205376;23;20202;-79
2023/05/14 17:41:26;;;;;;;9.38;9.07;;;21.50;99.90;;;;;;6204746;23;20278;-79
2023/05/14 17:43:54;;;;;;;9.70;9.40;;;21.40;99.90;;;;;;6209355;23;20204;-79
2023/05/14 17:46:21;;;;;;;9.70;9.40;;;21.40;99.90;;;;;;6202350;23;20204;-80
2023/05/14 17:48:49;;;;;;;9.80;9.50;;;21.20;99.90;;;;;;6203623;23;20187;-79
2023/05/14 17:51:18;;;;;;;9.60;9.30;;;20.90;99.90;;;;;;6204130;23;20227;-79
2023/05/14 17:53:46;;;;;;;9.30;9.00;;;20.30;99.90;;;;;;6203123;23;20258;-79
2023/05/14 17:56:17;;;;;;;9.50;9.20;;;20.00;99.90;;;;;;6203996;23;20192;-79
2023/05/14 17:58:45;;;;;;;9.50;9.20;;;19.70;99.90;;;;;;6202776;23;20188;-79
2023/05/14 18:01:12;;;;;;;9.90;9.60;;;19.40;99.90;;;;;;6204056;23;20583;-79
2023/05/14 18:03:40;;;;;;;9.80;9.50;;;19.30;99.90;;;;;;6204232;23;20235;-80
2023/05/14 18:06:09;;;;;;;9.50;9.20;;;19.20;99.90;;;;;;6204521;23;20231;-79
2023/05/14 18:08:36;;;;;;;9.50;9.20;;;19.00;99.90;;;;;;6203931;23;20223;-79
2023/05/14 18:11:04;;;;;;;9.30;9.00;;;18.80;99.90;;;;;;6204228;23;20196;-79
2023/05/14 18:13:34;;;;;;;9.20;8.90;;;18.70;99.90;;;;;;6204195;22;20337;-78
2023/05/14 18:16:05;;;;;;;9.35;9.05;;;18.50;99.90;;;;;;6205532;23;20200;-79
2023/05/14 18:18:33;;;;;;;9.68;9.38;;;18.30;99.90;;;;;;6205004;23;20223;-79
2023/05/14 18:21:01;;;;;;;9.68;9.38;;;18.10;99.90;;;;;;6205716;22;20203;-79
2023/05/14 18:23:30;;;;;;;9.50;9.20;;;17.90;99.90;;;;;;6211026;22;20258;-80
2023/05/14 18:25:57;;;;;;;9.40;9.10;;;17.80;99.90;;;;;;6204406;23;20262;-79
2023/05/14 18:28:28;;;;;;;9.48;9.18;;;17.80;99.90;;;;;;6205839;23;20188;-79
2023/05/14 18:30:57;;;;;;;9.50;9.20;;;17.70;99.90;;;;;;6206096;23;20195;-79
2023/05/14 18:33:25;;;;;;;9.52;9.23;;;17.70;99.90;;;;;;6209558;23;20223;-79
2023/05/14 18:35:55;;;;;;;9.32;9.02;;;17.70;99.90;;;;;;6211368;23;20192;-79
2023/05/14 18:38:22;;;;;;;9.48;9.18;;;17.70;99.90;;;;;;6209341;23;20259;-80
2023/05/14 18:40:50;;;;;;;9.50;9.20;;;17.60;99.90;;;;;;6207518;23;20208;-80
2023/05/14 18:43:21;;;;;;;9.50;9.20;;;17.40;99.90;;;;;;6205413;23;20200;-79
2023/05/14 18:45:51;;;;;;;9.80;9.50;;;17.10;99.90;;;;;;6205847;22;20230;-79
2023/05/14 18:48:20;;;;;;;9.80;9.50;;;16.70;99.90;;;;;;6205065;22;20200;-79
2023/05/14 18:50:48;;;;;;;9.70;9.40;;;16.40;99.90;;;;;;6204782;23;20199;-79
2023/05/14 18:53:19;;;;;;;9.90;9.60;;;16.20;99.90;;;;;;6204478;23;20207;-81
2023/05/14 18:55:47;;;;;;;9.80;9.50;;;16.10;99.90;;;;;;6203971;23;20203;-79
2023/05/14 18:58:17;;;;;;;9.38;9.07;;;15.90;99.90;;;;;;6204194;23;20195;-79
2023/05/14 19:00:48;;;;;;;9.23;8.93;;;15.80;99.90;;;;;;6203499;23;20210;-81
2023/05/14 19:03:18;;;;;;;9.30;9.00;;;15.70;99.90;;;;;;6203265;23;20195;-82
2023/05/14 19:06:06;;;;;;;9.40;9.10;;;15.60;99.90;;;;;;6199249;23;20196;-83
2023/05/14 19:08:34;;;;;;;8.90;8.70;;;15.50;99.90;;;;;;6201030;23;20227;-83
2023/05/14 19:11:02;;;;;;;8.98;8.77;;;15.50;99.90;;;;;;6200864;23;20192;-81
2023/05/14 19:13:31;;;;;;;8.60;8.40;;;15.40;99.90;;;;;;6200433;23;20216;-81
2023/05/14 19:16:01;;;;;;;9.00;8.80;;;15.40;99.90;;;;;;6202953;23;20293;-83
2023/05/14 19:18:30;;;;;;;8.80;8.60;;;15.30;99.90;;;;;;6200741;23;20199;-80
2023/05/14 19:21:07;;;;;;;9.00;8.80;;;15.20;99.90;;;;;;6199752;23;20203;-81
2023/05/14 19:23:36;;;;;;;8.80;8.60;;;15.10;99.90;;;;;;6199325;23;20191;-80
2023/05/14 19:26:05;;;;;;;9.07;8.88;;;15.10;99.90;;;;;;6200388;23;20222;-81
2023/05/14 19:28:36;;;;;;;8.68;8.48;;;15.00;99.90;;;;;;6206423;23;20286;-80
2023/05/14 19:31:05;;;;;;;8.93;8.73;;;15.00;99.90;;;;;;6199975;23;20262;-80
2023/05/14 19:33:33;;;;;;;8.88;8.68;;;14.90;99.90;;;;;;6200620;23;20203;-80
2023/05/14 19:36:04;;;;;;;9.07;8.88;;;14.80;99.90;;;;;;6199541;23;20294;-81
2023/05/14 19:38:33;;;;;;;8.73;8.53;;;14.80;99.90;;;;;;6200823;23;20219;-80
2023/05/14 19:41:03;;;;;;;8.70;8.50;;;14.70;99.90;;;;;;6217959;23;20206;-80
2023/05/14 19:43:33;;;;;;;8.77;8.57;;;14.70;99.90;;;;;;6217716;23;20186;-79
2023/05/14 19:46:03;;;;;;;8.90;8.70;;;14.70;99.90;;;;;;6210157;23;20199;-80
2023/05/14 19:48:33;;;;;;;8.70;8.50;;;14.60;99.90;;;;;;6200817;23;20202;-82
2023/05/14 19:51:04;;;;;;;9.30;9.00;;;14.60;99.90;;;;;;6200849;23;20195;-80
2023/05/14 19:53:32;;;;;;;9.30;9.00;;;14.60;99.90;;;;;;6199091;23;20212;-81
2023/05/14 19:56:00;;;;;;;9.00;8.80;;;14.50;99.90;;;;;;6199427;23;20223;-82
2023/05/14 19:58:29;;;;;;;9.40;9.10;;;14.50;99.90;;;;;;6199941;23;20199;-81
2023/05/14 20:00:59;;;;;;;8.95;8.75;;;14.50;99.90;;;;;;6199201;23;20196;-80
2023/05/14 20:03:29;;;;;;;8.83;8.63;;;14.60;99.90;;;;;;6199435;23;20214;-80
2023/05/14 20:05:58;;;;;;;9.03;8.83;;;14.50;99.90;;;;;;6199323;23;20207;-81
2023/05/14 20:08:29;;;;;;;9.20;8.90;;;14.50;99.90;;;;;;6201982;23;20203;-81
2023/05/14 20:10:58;;;;;;;9.20;8.90;;;14.50;99.90;;;;;;6199785;23;20191;-79
2023/05/14 20:13:26;;;;;;;9.00;8.80;;;14.50;99.90;;;;;;6197049;23;20199;-79
2023/05/14 20:15:54;;;;;;;9.03;8.83;;;14.40;99.90;;;;;;6200309;23;20200;-77
2023/05/14 20:18:28;;;;;;;9.30;9.00;;;14.40;99.90;;;;;;6204396;23;20198;-80
2023/05/14 20:20:56;;;;;;;9.27;8.97;;;14.40;99.90;;;;;;6203960;23;20184;-79
2023/05/14 20:23:23;;;;;;;8.87;8.67;;;14.30;99.90;;;;;;6197575;23;20227;-79
2023/05/14 20:25:53;;;;;;;9.57;9.27;;;14.30;99.90;;;;;;6196979;23;20199;-79
2023/05/14 20:28:22;;;;;;;9.60;9.30;;;14.20;99.90;;;;;;6198633;23;20219;-79
2023/05/14 20:30:50;;;;;;;9.55;9.25;;;14.20;99.90;;;;;;6197565;23;20224;-80
2023/05/14 20:33:21;;;;;;;9.45;9.15;;;14.20;99.90;;;;;;6197440;23;20207;-78
2023/05/14 20:35:49;;;;;;;9.63;9.33;;;14.10;99.90;;;;;;6197520;23;20251;-79
2023/05/14 20:38:19;;;;;;;9.50;9.20;;;14.10;99.90;;;;;;6197744;23;20200;-79
2023/05/14 20:40:46;;;;;;;9.50;9.20;;;14.10;99.90;;;;;;6198260;23;20192;-79
2023/05/14 20:43:16;;;;;;;9.30;9.00;;;14.00;99.90;;;;;;6197160;23;20224;-79
2023/05/14 20:45:45;;;;;;;9.53;9.23;;;14.00;99.90;;;;;;6199537;23;20195;-79
2023/05/14 20:48:15;;;;;;;9.50;9.20;;;14.00;99.90;;;;;;6199555;23;20230;-79
2023/05/14 20:50:42;;;;;;;9.63;9.33;;;14.00;99.90;;;;;;6199050;23;20206;-80
2023/05/14 20:53:10;;;;;;;9.70;9.40;;;14.00;99.90;;;;;;6197990;23;20286;-80
2023/05/14 20:55:38;;;;;;;9.83;9.53;;;14.00;99.90;;;;;;6198786;23;20278;-79
2023/05/14 20:58:06;;;;;;;9.90;9.60;;;14.00;99.90;;;;;;6198849;23;20207;-79
2023/05/14 21:00:35;;;;;;;9.83;9.53;;;14.00;99.90;;;;;;6198097;23;20242;-79
2023/05/14 21:03:03;;;;;;;9.70;9.40;;;14.00;99.90;;;;;;6197813;23;20243;-79
2023/05/14 21:05:30;;;;;;;9.60;9.30;;;14.00;99.90;;;;;;6200758;23;20211;-80
2023/05/14 21:07:58;;;;;;;9.50;9.20;;;14.00;99.90;;;;;;6200786;23;20211;-79
2023/05/14 21:10:29;;;;;;;9.50;9.20;;;14.00;99.90;;;;;;6201395;23;20210;-80
2023/05/14 21:13:00;;;;;;;9.30;9.00;;;14.00;99.90;;;;;;6196310;23;20267;-80
2023/05/14 21:15:29;;;;;;;9.40;9.10;;;14.00;99.90;;;;;;6200712;23;20204;-79
2023/05/14 21:17:58;;;;;;;9.83;9.53;;;14.00;99.90;;;;;;6205203;23;20207;-79
2023/05/14 21:20:26;;;;;;;9.60;9.30;;;14.00;99.90;;;;;;6202790;23;20227;-79
2023/05/14 21:22:53;;;;;;;9.67;9.37;;;14.00;99.90;;;;;;6200876;23;20235;-79
2023/05/14 21:25:21;;;;;;;9.43;9.13;;;14.00;99.90;;;;;;6199043;23;20227;-79
2023/05/14 21:27:50;;;;;;;9.80;9.50;;;13.90;99.90;;;;;;6199822;23;20262;-79
2023/05/14 21:30:19;;;;;;;9.70;9.40;;;13.90;99.90;;;;;;6200175;23;20223;-80
2023/05/14 21:32:48;;;;;;;9.63;9.33;;;13.90;99.90;;;;;;6198812;22;20207;-79
2023/05/14 21:35:21;;;;;;;9.60;9.30;;;13.90;99.90;;;;;;6206000;23;20183;-80
2023/05/14 21:37:50;;;;;;;9.60;9.30;;;13.90;99.90;;;;;;6203987;23;20240;-80
2023/05/14 21:40:19;;;;;;;9.53;9.23;;;13.90;99.90;;;;;;6205062;23;20227;-81
2023/05/14 21:42:52;;;;;;;9.40;9.10;;;13.90;99.90;;;;;;6202881;23;20258;-81
2023/05/14 21:45:19;;;;;;;9.50;9.20;;;13.90;99.90;;;;;;6199700;23;20216;-80
2023/05/14 21:47:47;;;;;;;9.53;9.23;;;13.90;99.90;;;;;;6200637;23;20262;-80
2023/05/14 21:50:19;;;;;;;9.40;9.10;;;13.90;99.90;;;;;;6200745;23;20195;-80
2023/05/14 21:52:47;;;;;;;9.47;9.17;;;13.90;99.90;;;;;;6197073;23;20196;-81
2023/05/14 21:55:14;;;;;;;9.40;9.10;;;13.80;99.90;;;;;;6200023;23;20188;-80
2023/05/14 21:57:43;;;;;;;9.50;9.20;;;13.70;99.90;;;;;;6199167;23;20203;-80
2023/05/14 22:00:12;;;;;;;9.60;9.30;;;13.70;99.90;;;;;;6199821;23;20278;-80
2023/05/14 22:02:39;;;;;;;9.83;9.53;;;13.60;99.90;;;;;;6199086;23;20237;-78
2023/05/14 22:05:23;;;;;;;9.90;9.60;;;13.60;99.90;;;;;;6200309;23;20203;-78